Arch Cape, OR (97102)

3:44 PM PDT on March 24, 2017 (GMT -0700)
Ray Brown Road | | Change Station

Elev 111 ft 45.79 °N, 123.97 °W | Updated 7 minutes ago

Overcast
Overcast
49.3 °F
Feels Like 49 °F
N
3.1
Wind Variable Wind from South
Gusts 9.3 mph

Today
High -- | Low -- °F
--% Chance of Precip.
Yesterday
High -- | Low -- °F
Precip. -- in
Pressure 29.86 in
Visibility 10.0 miles
Clouds Scattered Clouds 2900 ft
Mostly Cloudy 4600 ft
Overcast 7000 ft
Windchill 49 °F
Dew Point 46 °F
Humidity 89%
Rainfall 0.09 in
Snow Depth Not available.
7:10 AM 7:34 PM
Waning Crescent, 12% visible
METAR KAST 242155Z AUTO 20013G21KT 10SM -RA SCT029 BKN046 OVC070 10/06 A2986 RMK AO2 PK WND 18028/2112 RAE07B37 SLP112 P0001 T01000061
Pressure 29.86 in
Visibility 10.0 miles
Clouds Scattered Clouds 2900 ft
Mostly Cloudy 4600 ft
Overcast 7000 ft
Windchill 49 °F
Dew Point 46 °F
Humidity 89%
Rainfall 0.09 in
Snow Depth Not available.
7:10 AM 7:34 PM
Waning Crescent, 12% visible
METAR KAST 242155Z AUTO 20013G21KT 10SM -RA SCT029 BKN046 OVC070 10/06 A2986 RMK AO2 PK WND 18028/2112 RAE07B37 SLP112 P0001 T01000061

Get Severe Weather Alerts

Thanks for signing up!

Be on the lookout for a verification email in your inbox.

You'll start receiving the daily forecast at 8 AM.

×

10-Day Weather Forecast

Almanac

Astronomy

Mar. 24, 2017 Rise Set
Actual Time
Civil Twilight
Nautical Twilight
Astronomical Twilight
Moon
Length of Visible Light
Length of Day
Tomorrow will be .
, % of the Moon is Illuminated

Today's Extremes

State Highs State Lows

Community

WunderPhotos

Upload Photos

1,962,540 photos uploaded!

WunderBlog® & News

Nearby

Air Quality

  Air Quality AQ Index Pollutant
Not available.

Snow Depth

Station Depth Elevation

Earthquake Activity

City Distance Mag. Time & Date
Minimum magnitude displayed is 2.5.

Earthquake Activity

City Distance Mag. Time & Date
Minimum magnitude displayed is 2.5.

Coastal Water Temperatures

Place Temperature

Stations

Nearby Weather Stations

Station Location Temp. Windchill Dew Point Humidity Wind Precip. Elev Updated Type
                   

Watches & Warnings

There are currently no watches in effect.